sensor_id;sensor_type;location;lat;lon;timestamp;temperature;humidity
46117;DHT22;32591;48.102;11.772;2023-08-06T00:01:09;15.90;99.90
46117;DHT22;32591;48.102;11.772;2023-08-06T00:03:37;15.80;99.90
46117;DHT22;32591;48.102;11.772;2023-08-06T00:06:05;15.70;99.90
46117;DHT22;32591;48.102;11.772;2023-08-06T00:08:32;15.70;99.90
46117;DHT22;32591;48.102;11.772;2023-08-06T00:10:59;15.60;99.90
46117;DHT22;32591;48.102;11.772;2023-08-06T00:13:26;15.50;99.90
46117;DHT22;32591;48.102;11.772;2023-08-06T00:15:53;15.50;99.90
46117;DHT22;32591;48.102;11.772;2023-08-06T00:18:20;15.40;99.90
46117;DHT22;32591;48.102;11.772;2023-08-06T00:20:48;15.40;99.90
46117;DHT22;32591;48.102;11.772;2023-08-06T00:23:15;15.40;99.90
46117;DHT22;32591;48.102;11.772;2023-08-06T00:25:42;15.30;99.90
46117;DHT22;32591;48.102;11.772;2023-08-06T00:28:09;15.30;99.90
46117;DHT22;32591;48.102;11.772;2023-08-06T00:30:36;15.30;99.90
46117;DHT22;32591;48.102;11.772;2023-08-06T00:33:03;15.20;99.90
46117;DHT22;32591;48.102;11.772;2023-08-06T00:35:30;15.20;99.90
46117;DHT22;32591;48.102;11.772;2023-08-06T00:37:58;15.20;99.90
46117;DHT22;32591;48.102;11.772;2023-08-06T00:40:25;15.10;99.90
46117;DHT22;32591;48.102;11.772;2023-08-06T00:42:54;15.00;99.90
46117;DHT22;32591;48.102;11.772;2023-08-06T00:45:21;15.00;99.90
46117;DHT22;32591;48.102;11.772;2023-08-06T00:47:48;15.00;99.90
46117;DHT22;32591;48.102;11.772;2023-08-06T00:50:15;15.00;99.90
46117;DHT22;32591;48.102;11.772;2023-08-06T00:52:43;14.90;99.90
46117;DHT22;32591;48.102;11.772;2023-08-06T00:55:11;15.00;99.90
46117;DHT22;32591;48.102;11.772;2023-08-06T00:57:38;14.90;99.90
46117;DHT22;32591;48.102;11.772;2023-08-06T01:00:06;15.00;99.90
46117;DHT22;32591;48.102;11.772;2023-08-06T01:02:34;14.90;99.90
46117;DHT22;32591;48.102;11.772;2023-08-06T01:05:01;14.80;99.90
46117;DHT22;32591;48.102;11.772;2023-08-06T01:07:37;14.70;99.90
46117;DHT22;32591;48.102;11.772;2023-08-06T01:10:23;14.70;99.90
46117;DHT22;32591;48.102;11.772;2023-08-06T01:13:08;14.70;99.90
46117;DHT22;32591;48.102;11.772;2023-08-06T01:15:43;14.60;99.90
46117;DHT22;32591;48.102;11.772;2023-08-06T01:18:13;14.60;99.90
46117;DHT22;32591;48.102;11.772;2023-08-06T01:20:41;14.50;99.90
46117;DHT22;32591;48.102;11.772;2023-08-06T01:23:08;14.50;99.90
46117;DHT22;32591;48.102;11.772;2023-08-06T01:25:41;14.50;99.90
46117;DHT22;32591;48.102;11.772;2023-08-06T01:28:19;14.60;99.90
46117;DHT22;32591;48.102;11.772;2023-08-06T01:30:50;14.40;99.90
46117;DHT22;32591;48.102;11.772;2023-08-06T01:33:21;14.40;99.90
46117;DHT22;32591;48.102;11.772;2023-08-06T01:35:51;14.40;99.90
46117;DHT22;32591;48.102;11.772;2023-08-06T01:38:19;14.40;99.90
46117;DHT22;32591;48.102;11.772;2023-08-06T01:40:46;14.50;99.90
46117;DHT22;32591;48.102;11.772;2023-08-06T01:43:13;14.50;99.90
46117;DHT22;32591;48.102;11.772;2023-08-06T01:45:40;14.50;99.90
46117;DHT22;32591;48.102;11.772;2023-08-06T01:48:07;14.50;99.90
46117;DHT22;32591;48.102;11.772;2023-08-06T01:50:34;14.50;99.90
46117;DHT22;32591;48.102;11.772;2023-08-06T01:53:02;14.50;99.90
46117;DHT22;32591;48.102;11.772;2023-08-06T01:55:29;14.60;99.90
46117;DHT22;32591;48.102;11.772;2023-08-06T01:57:56;14.50;99.90
46117;DHT22;32591;48.102;11.772;2023-08-06T02:00:23;14.50;99.90
46117;DHT22;32591;48.102;11.772;2023-08-06T02:02:50;14.40;99.90
46117;DHT22;32591;48.102;11.772;2023-08-06T02:05:17;14.20;99.90
46117;DHT22;32591;48.102;11.772;2023-08-06T02:07:44;14.20;99.90
46117;DHT22;32591;48.102;11.772;2023-08-06T02:10:12;14.20;99.90
46117;DHT22;32591;48.102;11.772;2023-08-06T02:12:39;14.20;99.90
46117;DHT22;32591;48.102;11.772;2023-08-06T02:15:07;14.20;99.90
46117;DHT22;32591;48.102;11.772;2023-08-06T02:17:34;14.20;99.90
46117;DHT22;32591;48.102;11.772;2023-08-06T02:20:01;14.20;99.90
46117;DHT22;32591;48.102;11.772;2023-08-06T02:22:28;14.20;99.90
46117;DHT22;32591;48.102;11.772;2023-08-06T02:24:55;14.10;99.90
46117;DHT22;32591;48.102;11.772;2023-08-06T02:27:23;14.10;99.90
46117;DHT22;32591;48.102;11.772;2023-08-06T02:29:50;14.10;99.90
46117;DHT22;32591;48.102;11.772;2023-08-06T02:32:17;14.10;99.90
46117;DHT22;32591;48.102;11.772;2023-08-06T02:34:44;14.10;99.90
46117;DHT22;32591;48.102;11.772;2023-08-06T02:37:11;14.10;99.90
46117;DHT22;32591;48.102;11.772;2023-08-06T02:39:38;14.10;99.90
46117;DHT22;32591;48.102;11.772;2023-08-06T02:42:06;14.10;99.90
46117;DHT22;32591;48.102;11.772;2023-08-06T02:44:34;14.00;99.90
46117;DHT22;32591;48.102;11.772;2023-08-06T02:47:01;14.00;99.90
46117;DHT22;32591;48.102;11.772;2023-08-06T02:49:28;14.00;99.90
46117;DHT22;32591;48.102;11.772;2023-08-06T02:51:55;14.10;99.90
46117;DHT22;32591;48.102;11.772;2023-08-06T02:54:22;14.10;99.90
46117;DHT22;32591;48.102;11.772;2023-08-06T02:56:49;14.10;99.90
46117;DHT22;32591;48.102;11.772;2023-08-06T02:59:16;14.00;99.90
46117;DHT22;32591;48.102;11.772;2023-08-06T03:01:44;14.00;99.90
46117;DHT22;32591;48.102;11.772;2023-08-06T03:04:12;13.90;99.90
46117;DHT22;32591;48.102;11.772;2023-08-06T03:06:39;13.90;99.90
46117;DHT22;32591;48.102;11.772;2023-08-06T03:09:05;14.00;99.90
46117;DHT22;32591;48.102;11.772;2023-08-06T03:11:32;14.10;99.90
46117;DHT22;32591;48.102;11.772;2023-08-06T03:13:59;14.00;99.90
46117;DHT22;32591;48.102;11.772;2023-08-06T03:16:26;14.00;99.90
46117;DHT22;32591;48.102;11.772;2023-08-06T03:18:55;14.10;99.90
46117;DHT22;32591;48.102;11.772;2023-08-06T03:21:22;14.20;99.90
46117;DHT22;32591;48.102;11.772;2023-08-06T03:23:48;14.10;99.90
46117;DHT22;32591;48.102;11.772;2023-08-06T03:26:15;14.00;99.90
46117;DHT22;32591;48.102;11.772;2023-08-06T03:28:42;14.00;99.90
46117;DHT22;32591;48.102;11.772;2023-08-06T03:31:09;13.90;99.90
46117;DHT22;32591;48.102;11.772;2023-08-06T03:33:36;13.80;99.90
46117;DHT22;32591;48.102;11.772;2023-08-06T03:36:05;13.70;99.90
46117;DHT22;32591;48.102;11.772;2023-08-06T03:38:32;13.60;99.90
46117;DHT22;32591;48.102;11.772;2023-08-06T03:40:59;13.60;99.90
46117;DHT22;32591;48.102;11.772;2023-08-06T03:43:26;13.50;99.90
46117;DHT22;32591;48.102;11.772;2023-08-06T03:45:53;13.50;99.90
46117;DHT22;32591;48.102;11.772;2023-08-06T03:48:20;13.50;99.90
46117;DHT22;32591;48.102;11.772;2023-08-06T03:50:47;13.50;99.90
46117;DHT22;32591;48.102;11.772;2023-08-06T03:53:15;13.50;99.90
46117;DHT22;32591;48.102;11.772;2023-08-06T03:55:42;13.50;99.90
46117;DHT22;32591;48.102;11.772;2023-08-06T03:58:09;13.50;99.90
46117;DHT22;32591;48.102;11.772;2023-08-06T04:00:36;13.60;99.90
46117;DHT22;32591;48.102;11.772;2023-08-06T04:03:03;13.50;99.90
46117;DHT22;32591;48.102;11.772;2023-08-06T04:05:31;13.50;99.90
46117;DHT22;32591;48.102;11.772;2023-08-06T04:07:58;13.50;99.90
46117;DHT22;32591;48.102;11.772;2023-08-06T04:10:27;13.50;99.90
46117;DHT22;32591;48.102;11.772;2023-08-06T04:12:54;13.40;99.90
46117;DHT22;32591;48.102;11.772;2023-08-06T04:15:21;13.50;99.90
46117;DHT22;32591;48.102;11.772;2023-08-06T04:17:47;13.50;99.90
46117;DHT22;32591;48.102;11.772;2023-08-06T04:20:14;13.50;99.90
46117;DHT22;32591;48.102;11.772;2023-08-06T04:22:41;13.50;99.90
46117;DHT22;32591;48.102;11.772;2023-08-06T04:25:09;13.50;99.90
46117;DHT22;32591;48.102;11.772;2023-08-06T04:27:37;13.50;99.90
46117;DHT22;32591;48.102;11.772;2023-08-06T04:30:07;13.50;99.90
46117;DHT22;32591;48.102;11.772;2023-08-06T04:32:37;13.40;99.90
46117;DHT22;32591;48.102;11.772;2023-08-06T04:35:04;13.40;99.90
46117;DHT22;32591;48.102;11.772;2023-08-06T04:37:32;13.50;99.90
46117;DHT22;32591;48.102;11.772;2023-08-06T04:39:59;13.40;99.90
46117;DHT22;32591;48.102;11.772;2023-08-06T04:42:26;13.40;99.90
46117;DHT22;32591;48.102;11.772;2023-08-06T04:44:54;13.40;99.90
46117;DHT22;32591;48.102;11.772;2023-08-06T04:47:21;13.50;99.90
46117;DHT22;32591;48.102;11.772;2023-08-06T04:49:48;13.50;99.90
46117;DHT22;32591;48.102;11.772;2023-08-06T04:52:15;13.50;99.90
46117;DHT22;32591;48.102;11.772;2023-08-06T04:54:43;13.60;99.90
46117;DHT22;32591;48.102;11.772;2023-08-06T04:57:10;13.60;99.90
46117;DHT22;32591;48.102;11.772;2023-08-06T04:59:38;13.60;99.90
46117;DHT22;32591;48.102;11.772;2023-08-06T05:02:06;13.70;99.90
46117;DHT22;32591;48.102;11.772;2023-08-06T05:04:33;13.70;99.90
46117;DHT22;32591;48.102;11.772;2023-08-06T05:07:00;13.80;99.90
46117;DHT22;32591;48.102;11.772;2023-08-06T05:09:27;13.90;99.90
46117;DHT22;32591;48.102;11.772;2023-08-06T05:11:54;13.90;99.90
46117;DHT22;32591;48.102;11.772;2023-08-06T05:14:21;13.90;99.90
46117;DHT22;32591;48.102;11.772;2023-08-06T05:16:48;13.90;99.90
46117;DHT22;32591;48.102;11.772;2023-08-06T05:19:17;13.90;99.90
46117;DHT22;32591;48.102;11.772;2023-08-06T05:21:44;13.90;99.90
46117;DHT22;32591;48.102;11.772;2023-08-06T05:24:11;14.00;99.90
46117;DHT22;32591;48.102;11.772;2023-08-06T05:26:38;14.00;99.90
46117;DHT22;32591;48.102;11.772;2023-08-06T05:29:04;14.00;99.90
46117;DHT22;32591;48.102;11.772;2023-08-06T05:31:31;14.10;99.90
46117;DHT22;32591;48.102;11.772;2023-08-06T05:33:58;14.00;99.90
46117;DHT22;32591;48.102;11.772;2023-08-06T05:36:28;14.00;99.90
46117;DHT22;32591;48.102;11.772;2023-08-06T05:38:55;14.00;99.90
46117;DHT22;32591;48.102;11.772;2023-08-06T05:41:22;14.00;99.90
46117;DHT22;32591;48.102;11.772;2023-08-06T05:43:49;14.10;99.90
46117;DHT22;32591;48.102;11.772;2023-08-06T05:46:16;14.10;99.90
46117;DHT22;32591;48.102;11.772;2023-08-06T05:48:43;14.10;99.90
46117;DHT22;32591;48.102;11.772;2023-08-06T05:51:10;14.20;99.90
46117;DHT22;32591;48.102;11.772;2023-08-06T05:53:39;14.20;99.90
46117;DHT22;32591;48.102;11.772;2023-08-06T05:56:06;14.10;99.90
46117;DHT22;32591;48.102;11.772;2023-08-06T05:58:33;14.10;99.90
46117;DHT22;32591;48.102;11.772;2023-08-06T06:01:00;14.10;99.90
46117;DHT22;32591;48.102;11.772;2023-08-06T06:03:27;14.00;99.90
46117;DHT22;32591;48.102;11.772;2023-08-06T06:05:54;14.00;99.90
46117;DHT22;32591;48.102;11.772;2023-08-06T06:08:21;14.10;99.90
46117;DHT22;32591;48.102;11.772;2023-08-06T06:10:50;14.00;99.90
46117;DHT22;32591;48.102;11.772;2023-08-06T06:13:17;14.00;99.90
46117;DHT22;32591;48.102;11.772;2023-08-06T06:15:43;14.00;99.90
46117;DHT22;32591;48.102;11.772;2023-08-06T06:18:10;14.10;99.90
46117;DHT22;32591;48.102;11.772;2023-08-06T06:20:37;14.10;99.90
46117;DHT22;32591;48.102;11.772;2023-08-06T06:23:04;14.10;99.90
46117;DHT22;32591;48.102;11.772;2023-08-06T06:25:31;14.10;99.90
46117;DHT22;32591;48.102;11.772;2023-08-06T06:27:59;14.10;99.90
46117;DHT22;32591;48.102;11.772;2023-08-06T06:30:26;14.10;99.90
46117;DHT22;32591;48.102;11.772;2023-08-06T06:32:53;14.20;99.90
46117;DHT22;32591;48.102;11.772;2023-08-06T06:35:20;14.30;99.90
46117;DHT22;32591;48.102;11.772;2023-08-06T06:37:47;14.30;99.90
46117;DHT22;32591;48.102;11.772;2023-08-06T06:40:15;14.40;99.90
46117;DHT22;32591;48.102;11.772;2023-08-06T06:42:42;14.40;99.90
46117;DHT22;32591;48.102;11.772;2023-08-06T06:45:10;14.40;99.90
46117;DHT22;32591;48.102;11.772;2023-08-06T06:47:37;14.50;99.90
46117;DHT22;32591;48.102;11.772;2023-08-06T06:50:05;14.60;99.90
46117;DHT22;32591;48.102;11.772;2023-08-06T06:52:33;14.70;99.90
46117;DHT22;32591;48.102;11.772;2023-08-06T06:55:00;14.80;99.90
46117;DHT22;32591;48.102;11.772;2023-08-06T06:57:27;14.90;99.90
46117;DHT22;32591;48.102;11.772;2023-08-06T06:59:53;14.90;99.90
46117;DHT22;32591;48.102;11.772;2023-08-06T07:02:22;15.00;99.90
46117;DHT22;32591;48.102;11.772;2023-08-06T07:04:50;15.00;99.90
46117;DHT22;32591;48.102;11.772;2023-08-06T07:07:17;15.10;99.90
46117;DHT22;32591;48.102;11.772;2023-08-06T07:09:44;15.20;99.90
46117;DHT22;32591;48.102;11.772;2023-08-06T07:12:11;15.30;99.90
46117;DHT22;32591;48.102;11.772;2023-08-06T07:14:38;15.30;99.90
46117;DHT22;32591;48.102;11.772;2023-08-06T07:17:05;15.40;99.90
46117;DHT22;32591;48.102;11.772;2023-08-06T07:19:34;15.40;99.90
46117;DHT22;32591;48.102;11.772;2023-08-06T07:22:01;15.40;99.90
46117;DHT22;32591;48.102;11.772;2023-08-06T07:24:28;15.50;99.90
46117;DHT22;32591;48.102;11.772;2023-08-06T07:26:55;15.60;99.90
46117;DHT22;32591;48.102;11.772;2023-08-06T07:29:22;15.80;99.90
46117;DHT22;32591;48.102;11.772;2023-08-06T07:31:49;15.90;99.90
46117;DHT22;32591;48.102;11.772;2023-08-06T07:34:16;16.00;99.90
46117;DHT22;32591;48.102;11.772;2023-08-06T07:36:45;16.00;99.90
46117;DHT22;32591;48.102;11.772;2023-08-06T07:39:12;15.80;99.90
46117;DHT22;32591;48.102;11.772;2023-08-06T07:41:39;15.80;99.90
46117;DHT22;32591;48.102;11.772;2023-08-06T07:44:06;15.80;99.90
46117;DHT22;32591;48.102;11.772;2023-08-06T07:46:33;15.70;99.90
46117;DHT22;32591;48.102;11.772;2023-08-06T07:49:01;15.50;99.90
46117;DHT22;32591;48.102;11.772;2023-08-06T07:51:28;15.30;99.90
46117;DHT22;32591;48.102;11.772;2023-08-06T07:53:56;15.20;99.90
46117;DHT22;32591;48.102;11.772;2023-08-06T07:56:23;15.10;99.90
46117;DHT22;32591;48.102;11.772;2023-08-06T07:58:50;15.10;99.90
46117;DHT22;32591;48.102;11.772;2023-08-06T08:01:17;15.10;99.90
46117;DHT22;32591;48.102;11.772;2023-08-06T08:03:44;15.10;99.90
46117;DHT22;32591;48.102;11.772;2023-08-06T08:06:11;15.10;99.90
46117;DHT22;32591;48.102;11.772;2023-08-06T08:08:38;15.10;99.90
46117;DHT22;32591;48.102;11.772;2023-08-06T08:11:06;15.20;99.90
46117;DHT22;32591;48.102;11.772;2023-08-06T08:13:33;15.20;99.90
46117;DHT22;32591;48.102;11.772;2023-08-06T08:16:01;15.40;99.90
46117;DHT22;32591;48.102;11.772;2023-08-06T08:18:28;15.60;99.90
46117;DHT22;32591;48.102;11.772;2023-08-06T08:20:57;15.80;99.90
46117;DHT22;32591;48.102;11.772;2023-08-06T08:23:25;16.10;99.90
46117;DHT22;32591;48.102;11.772;2023-08-06T08:25:52;16.30;99.90
46117;DHT22;32591;48.102;11.772;2023-08-06T08:28:21;16.30;99.90
46117;DHT22;32591;48.102;11.772;2023-08-06T08:30:48;16.50;99.90
46117;DHT22;32591;48.102;11.772;2023-08-06T08:33:15;16.70;99.90
46117;DHT22;32591;48.102;11.772;2023-08-06T08:35:42;16.70;99.90
46117;DHT22;32591;48.102;11.772;2023-08-06T08:38:08;16.80;99.90
46117;DHT22;32591;48.102;11.772;2023-08-06T08:40:40;16.60;99.90
46117;DHT22;32591;48.102;11.772;2023-08-06T08:43:11;16.70;99.90
46117;DHT22;32591;48.102;11.772;2023-08-06T08:45:42;16.60;99.90
46117;DHT22;32591;48.102;11.772;2023-08-06T08:48:12;16.70;99.90
46117;DHT22;32591;48.102;11.772;2023-08-06T08:50:39;16.70;99.90
46117;DHT22;32591;48.102;11.772;2023-08-06T08:53:08;16.80;99.90
46117;DHT22;32591;48.102;11.772;2023-08-06T08:55:35;16.80;99.90
46117;DHT22;32591;48.102;11.772;2023-08-06T08:58:03;16.90;99.90
46117;DHT22;32591;48.102;11.772;2023-08-06T09:00:31;16.90;99.90
46117;DHT22;32591;48.102;11.772;2023-08-06T09:03:00;16.80;99.90
46117;DHT22;32591;48.102;11.772;2023-08-06T09:05:29;16.50;99.90
46117;DHT22;32591;48.102;11.772;2023-08-06T09:08:02;16.30;99.90
46117;DHT22;32591;48.102;11.772;2023-08-06T09:10:30;16.20;99.90
46117;DHT22;32591;48.102;11.772;2023-08-06T09:12:57;16.10;99.90
46117;DHT22;32591;48.102;11.772;2023-08-06T09:15:27;16.10;99.90
46117;DHT22;32591;48.102;11.772;2023-08-06T09:17:55;16.20;99.90
46117;DHT22;32591;48.102;11.772;2023-08-06T09:20:23;16.30;99.90
46117;DHT22;32591;48.102;11.772;2023-08-06T09:22:52;16.20;99.90
46117;DHT22;32591;48.102;11.772;2023-08-06T09:25:22;16.10;99.90
46117;DHT22;32591;48.102;11.772;2023-08-06T09:27:50;16.10;99.90
46117;DHT22;32591;48.102;11.772;2023-08-06T09:30:29;16.20;99.90
46117;DHT22;32591;48.102;11.772;2023-08-06T09:32:57;15.70;99.90
46117;DHT22;32591;48.102;11.772;2023-08-06T09:35:28;15.40;99.90
46117;DHT22;32591;48.102;11.772;2023-08-06T09:37:55;15.40;99.90
46117;DHT22;32591;48.102;11.772;2023-08-06T09:40:27;15.50;99.90
46117;DHT22;32591;48.102;11.772;2023-08-06T09:42:55;15.70;99.90
46117;DHT22;32591;48.102;11.772;2023-08-06T09:45:22;15.70;99.90
46117;DHT22;32591;48.102;11.772;2023-08-06T09:47:49;15.70;99.90
46117;DHT22;32591;48.102;11.772;2023-08-06T09:50:17;15.80;99.90
46117;DHT22;32591;48.102;11.772;2023-08-06T09:52:47;15.80;99.90
46117;DHT22;32591;48.102;11.772;2023-08-06T09:55:15;15.90;99.90
46117;DHT22;32591;48.102;11.772;2023-08-06T09:57:42;16.00;99.90
46117;DHT22;32591;48.102;11.772;2023-08-06T10:00:10;15.90;99.90
46117;DHT22;32591;48.102;11.772;2023-08-06T10:02:39;15.90;99.90
46117;DHT22;32591;48.102;11.772;2023-08-06T10:05:07;16.00;99.90
46117;DHT22;32591;48.102;11.772;2023-08-06T10:07:35;16.20;99.90
46117;DHT22;32591;48.102;11.772;2023-08-06T10:10:07;16.30;99.90
46117;DHT22;32591;48.102;11.772;2023-08-06T10:12:35;16.30;99.90
46117;DHT22;32591;48.102;11.772;2023-08-06T10:15:10;16.20;99.90
46117;DHT22;32591;48.102;11.772;2023-08-06T10:17:39;16.00;99.90
46117;DHT22;32591;48.102;11.772;2023-08-06T10:20:08;15.90;99.90
46117;DHT22;32591;48.102;11.772;2023-08-06T10:22:35;15.90;99.90
46117;DHT22;32591;48.102;11.772;2023-08-06T10:25:03;15.90;99.90
46117;DHT22;32591;48.102;11.772;2023-08-06T10:27:34;15.80;99.90
46117;DHT22;32591;48.102;11.772;2023-08-06T10:30:23;15.70;99.90
46117;DHT22;32591;48.102;11.772;2023-08-06T10:32:52;15.70;99.90
46117;DHT22;32591;48.102;11.772;2023-08-06T10:35:31;15.70;99.90
46117;DHT22;32591;48.102;11.772;2023-08-06T10:38:04;15.70;99.90
46117;DHT22;32591;48.102;11.772;2023-08-06T10:40:32;15.50;99.90
46117;DHT22;32591;48.102;11.772;2023-08-06T10:43:01;15.60;99.90
46117;DHT22;32591;48.102;11.772;2023-08-06T10:45:29;15.80;99.90
46117;DHT22;32591;48.102;11.772;2023-08-06T10:47:57;15.90;99.90
46117;DHT22;32591;48.102;11.772;2023-08-06T10:50:24;16.00;99.90
46117;DHT22;32591;48.102;11.772;2023-08-06T10:52:52;16.00;99.90
46117;DHT22;32591;48.102;11.772;2023-08-06T10:55:23;16.00;99.90
46117;DHT22;32591;48.102;11.772;2023-08-06T10:57:51;16.00;99.90
46117;DHT22;32591;48.102;11.772;2023-08-06T11:00:21;16.00;99.90
46117;DHT22;32591;48.102;11.772;2023-08-06T11:02:49;16.10;99.90
46117;DHT22;32591;48.102;11.772;2023-08-06T11:05:16;16.10;99.90
46117;DHT22;32591;48.102;11.772;2023-08-06T11:07:44;16.10;99.90
46117;DHT22;32591;48.102;11.772;2023-08-06T11:10:13;16.10;99.90
46117;DHT22;32591;48.102;11.772;2023-08-06T11:12:41;16.00;99.90
46117;DHT22;32591;48.102;11.772;2023-08-06T11:15:08;15.90;99.90
46117;DHT22;32591;48.102;11.772;2023-08-06T11:17:40;16.00;99.90
46117;DHT22;32591;48.102;11.772;2023-08-06T11:20:09;16.10;99.90
46117;DHT22;32591;48.102;11.772;2023-08-06T11:22:37;16.10;99.90
46117;DHT22;32591;48.102;11.772;2023-08-06T11:25:05;16.20;99.90
46117;DHT22;32591;48.102;11.772;2023-08-06T11:27:33;16.30;99.90
46117;DHT22;32591;48.102;11.772;2023-08-06T11:30:00;16.40;99.90
46117;DHT22;32591;48.102;11.772;2023-08-06T11:32:27;16.40;99.90
46117;DHT22;32591;48.102;11.772;2023-08-06T11:34:56;16.40;99.90
46117;DHT22;32591;48.102;11.772;2023-08-06T11:37:23;16.40;99.90
46117;DHT22;32591;48.102;11.772;2023-08-06T11:39:51;16.10;99.90
46117;DHT22;32591;48.102;11.772;2023-08-06T11:42:18;16.00;99.90
46117;DHT22;32591;48.102;11.772;2023-08-06T11:44:45;15.80;99.90
46117;DHT22;32591;48.102;11.772;2023-08-06T11:47:14;15.70;99.90
46117;DHT22;32591;48.102;11.772;2023-08-06T11:49:44;15.70;99.90
46117;DHT22;32591;48.102;11.772;2023-08-06T11:52:17;15.90;99.90
46117;DHT22;32591;48.102;11.772;2023-08-06T11:54:47;15.90;99.90
46117;DHT22;32591;48.102;11.772;2023-08-06T11:57:15;16.10;99.90
46117;DHT22;32591;48.102;11.772;2023-08-06T11:59:42;16.10;99.90
46117;DHT22;32591;48.102;11.772;2023-08-06T12:02:10;16.10;99.90
46117;DHT22;32591;48.102;11.772;2023-08-06T12:05:00;16.10;99.90
46117;DHT22;32591;48.102;11.772;2023-08-06T12:07:32;16.10;99.90
46117;DHT22;32591;48.102;11.772;2023-08-06T12:10:04;16.10;99.90
46117;DHT22;32591;48.102;11.772;2023-08-06T12:12:32;16.10;99.90
46117;DHT22;32591;48.102;11.772;2023-08-06T12:14:58;16.10;99.90
46117;DHT22;32591;48.102;11.772;2023-08-06T12:17:25;16.00;99.90
46117;DHT22;32591;48.102;11.772;2023-08-06T12:19:53;16.00;99.90
46117;DHT22;32591;48.102;11.772;2023-08-06T12:22:20;15.90;99.90
46117;DHT22;32591;48.102;11.772;2023-08-06T12:24:49;15.90;99.90
46117;DHT22;32591;48.102;11.772;2023-08-06T12:27:16;15.80;99.90
46117;DHT22;32591;48.102;11.772;2023-08-06T12:29:44;15.80;99.90
46117;DHT22;32591;48.102;11.772;2023-08-06T12:32:12;15.90;99.90
46117;DHT22;32591;48.102;11.772;2023-08-06T12:34:41;15.90;99.90
46117;DHT22;32591;48.102;11.772;2023-08-06T12:37:09;16.00;99.90
46117;DHT22;32591;48.102;11.772;2023-08-06T12:39:36;16.00;99.90
46117;DHT22;32591;48.102;11.772;2023-08-06T12:42:06;16.10;99.90
46117;DHT22;32591;48.102;11.772;2023-08-06T12:44:33;16.00;99.90
46117;DHT22;32591;48.102;11.772;2023-08-06T12:47:00;15.80;99.90
46117;DHT22;32591;48.102;11.772;2023-08-06T12:49:27;15.70;99.90
46117;DHT22;32591;48.102;11.772;2023-08-06T12:51:54;15.50;99.90
46117;DHT22;32591;48.102;11.772;2023-08-06T12:54:23;15.40;99.90
46117;DHT22;32591;48.102;11.772;2023-08-06T12:56:50;15.40;99.90
46117;DHT22;32591;48.102;11.772;2023-08-06T12:59:18;15.40;99.90
46117;DHT22;32591;48.102;11.772;2023-08-06T13:01:46;15.40;99.90
46117;DHT22;32591;48.102;11.772;2023-08-06T13:04:14;15.20;99.90
46117;DHT22;32591;48.102;11.772;2023-08-06T13:06:41;15.20;99.90
46117;DHT22;32591;48.102;11.772;2023-08-06T13:09:08;15.20;99.90
46117;DHT22;32591;48.102;11.772;2023-08-06T13:11:36;15.40;99.90
46117;DHT22;32591;48.102;11.772;2023-08-06T13:14:05;15.50;99.90
46117;DHT22;32591;48.102;11.772;2023-08-06T13:16:35;15.50;99.90
46117;DHT22;32591;48.102;11.772;2023-08-06T13:19:03;15.40;99.90
46117;DHT22;32591;48.102;11.772;2023-08-06T13:21:32;15.40;99.90
46117;DHT22;32591;48.102;11.772;2023-08-06T13:24:01;15.50;99.90
46117;DHT22;32591;48.102;11.772;2023-08-06T13:26:29;15.70;99.90
46117;DHT22;32591;48.102;11.772;2023-08-06T13:28:57;15.90;99.90
46117;DHT22;32591;48.102;11.772;2023-08-06T13:31:24;16.50;99.90
46117;DHT22;32591;48.102;11.772;2023-08-06T13:33:54;16.80;99.90
46117;DHT22;32591;48.102;11.772;2023-08-06T13:36:23;16.60;99.90
46117;DHT22;32591;48.102;11.772;2023-08-06T13:38:51;16.40;99.90
46117;DHT22;32591;48.102;11.772;2023-08-06T13:41:18;16.30;99.90
46117;DHT22;32591;48.102;11.772;2023-08-06T13:43:45;16.20;99.90
46117;DHT22;32591;48.102;11.772;2023-08-06T13:46:12;16.00;99.90
46117;DHT22;32591;48.102;11.772;2023-08-06T13:48:42;15.60;99.90
46117;DHT22;32591;48.102;11.772;2023-08-06T13:51:11;15.30;99.90
46117;DHT22;32591;48.102;11.772;2023-08-06T13:53:38;15.10;99.90
46117;DHT22;32591;48.102;11.772;2023-08-06T13:56:06;15.10;99.90
46117;DHT22;32591;48.102;11.772;2023-08-06T13:58:35;15.40;99.90
46117;DHT22;32591;48.102;11.772;2023-08-06T14:01:02;15.40;99.90
46117;DHT22;32591;48.102;11.772;2023-08-06T14:03:29;15.40;99.90
46117;DHT22;32591;48.102;11.772;2023-08-06T14:05:56;15.30;99.90
46117;DHT22;32591;48.102;11.772;2023-08-06T14:08:24;15.00;99.90
46117;DHT22;32591;48.102;11.772;2023-08-06T14:10:52;14.90;99.90
46117;DHT22;32591;48.102;11.772;2023-08-06T14:13:19;14.90;99.90
46117;DHT22;32591;48.102;11.772;2023-08-06T14:15:47;14.90;99.90
46117;DHT22;32591;48.102;11.772;2023-08-06T14:18:14;14.80;99.90
46117;DHT22;32591;48.102;11.772;2023-08-06T14:20:42;14.70;99.90
46117;DHT22;32591;48.102;11.772;2023-08-06T14:23:09;14.70;99.90
46117;DHT22;32591;48.102;11.772;2023-08-06T14:25:38;14.60;99.90
46117;DHT22;32591;48.102;11.772;2023-08-06T14:28:06;14.70;99.90
46117;DHT22;32591;48.102;11.772;2023-08-06T14:30:33;14.80;99.90
46117;DHT22;32591;48.102;11.772;2023-08-06T14:33:00;14.90;99.90
46117;DHT22;32591;48.102;11.772;2023-08-06T14:35:27;14.80;99.90
46117;DHT22;32591;48.102;11.772;2023-08-06T14:37:54;14.80;99.90
46117;DHT22;32591;48.102;11.772;2023-08-06T14:40:21;14.80;99.90
46117;DHT22;32591;48.102;11.772;2023-08-06T14:42:49;14.60;99.90
46117;DHT22;32591;48.102;11.772;2023-08-06T14:45:16;14.60;99.90
46117;DHT22;32591;48.102;11.772;2023-08-06T14:47:43;14.60;99.90
46117;DHT22;32591;48.102;11.772;2023-08-06T14:50:10;14.50;99.90
46117;DHT22;32591;48.102;11.772;2023-08-06T14:52:38;14.40;99.90
46117;DHT22;32591;48.102;11.772;2023-08-06T14:55:05;14.40;99.90
46117;DHT22;32591;48.102;11.772;2023-08-06T14:57:34;14.20;99.90
46117;DHT22;32591;48.102;11.772;2023-08-06T15:00:05;14.10;99.90
46117;DHT22;32591;48.102;11.772;2023-08-06T15:02:37;14.10;99.90
46117;DHT22;32591;48.102;11.772;2023-08-06T15:05:05;14.00;99.90
46117;DHT22;32591;48.102;11.772;2023-08-06T15:07:34;14.00;99.90
46117;DHT22;32591;48.102;11.772;2023-08-06T15:10:04;14.00;99.90
46117;DHT22;32591;48.102;11.772;2023-08-06T15:12:32;13.80;99.90
46117;DHT22;32591;48.102;11.772;2023-08-06T15:14:59;13.80;99.90
46117;DHT22;32591;48.102;11.772;2023-08-06T15:17:29;13.80;99.90
46117;DHT22;32591;48.102;11.772;2023-08-06T15:19:56;13.80;99.90